createdAt,value
2018-03-15T00:00:13.830Z,81.04
2018-03-15T00:01:13.846Z,80.27
2018-03-15T00:02:13.866Z,80.84
2018-03-15T00:03:13.880Z,80.18
2018-03-15T00:04:13.900Z,79.90
2018-03-15T00:05:13.919Z,80.46
2018-03-15T00:06:13.936Z,83.16
2018-03-15T00:07:13.953Z,81.65
2018-03-15T00:08:13.974Z,80.88
2018-03-15T00:09:13.990Z,80.27
2018-03-15T00:10:14.004Z,80.75
2018-03-15T00:11:14.032Z,80.69
2018-03-15T00:12:14.047Z,80.65
2018-03-15T00:13:14.067Z,80.56
2018-03-15T00:14:14.085Z,80.65
2018-03-15T00:15:14.099Z,80.84
2018-03-15T00:16:14.119Z,81.13
2018-03-15T00:17:14.133Z,81.04
2018-03-15T00:18:14.153Z,81.04
2018-03-15T00:19:14.174Z,81.04
2018-03-15T00:20:14.187Z,80.94
2018-03-15T00:21:14.209Z,81.23
2018-03-15T00:22:14.232Z,81.23
2018-03-15T00:23:14.247Z,81.32
2018-03-15T00:24:14.262Z,81.70
2018-03-15T00:25:14.286Z,81.79
2018-03-15T00:26:14.312Z,82.08
2018-03-15T00:27:14.317Z,81.51
2018-03-15T00:28:14.337Z,81.41
2018-03-15T00:29:14.357Z,82.08
2018-03-15T00:30:14.377Z,81.60
2018-03-15T00:31:14.392Z,81.88
2018-03-15T00:32:14.411Z,81.51
2018-03-15T00:33:14.437Z,81.60
2018-03-15T00:34:14.446Z,81.32
2018-03-15T00:35:14.468Z,81.98
2018-03-15T00:36:14.486Z,81.98
2018-03-15T00:37:14.506Z,81.79
2018-03-15T00:38:14.525Z,82.08
2018-03-15T00:39:14.535Z,81.51
2018-03-15T00:40:14.560Z,81.32
2018-03-15T00:41:14.580Z,80.75
2018-03-15T00:42:14.591Z,81.04
2018-03-15T00:43:14.613Z,81.51
2018-03-15T00:44:14.631Z,81.13
2018-03-15T00:45:14.655Z,81.60
2018-03-15T00:46:14.670Z,81.98
2018-03-15T00:47:14.683Z,82.46
2018-03-15T00:48:14.710Z,81.88
2018-03-15T00:49:14.721Z,81.79
2018-03-15T00:50:14.741Z,81.60
2018-03-15T00:51:14.759Z,82.17
2018-03-15T00:52:14.775Z,82.17
2018-03-15T00:53:14.805Z,82.17
2018-03-15T00:54:14.811Z,82.36
2018-03-15T00:55:14.840Z,82.46
2018-03-15T00:56:14.851Z,82.84
2018-03-15T00:57:14.870Z,82.46
2018-03-15T00:58:14.889Z,82.74
2018-03-15T00:59:14.910Z,82.08
2018-03-15T01:00:14.929Z,82.17
2018-03-15T01:01:14.944Z,82.27
2018-03-15T01:02:14.960Z,81.98
2018-03-15T01:03:14.984Z,82.46
2018-03-15T01:04:14.995Z,82.17
2018-03-15T01:05:15.019Z,82.17
2018-03-15T01:06:15.035Z,82.17
2018-03-15T01:07:15.055Z,82.27
2018-03-15T01:08:15.070Z,81.88
2018-03-15T01:09:15.090Z,82.08
2018-03-15T01:10:15.116Z,82.74
2018-03-15T01:11:15.128Z,82.84
2018-03-15T01:12:15.146Z,82.46
2018-03-15T01:13:15.159Z,81.79
2018-03-15T01:14:15.179Z,81.79
2018-03-15T01:15:15.207Z,81.51
2018-03-15T01:16:15.220Z,81.51
2018-03-15T01:17:15.238Z,81.88
2018-03-15T01:18:15.252Z,81.79
2018-03-15T01:19:15.272Z,81.79
2018-03-15T01:20:15.289Z,81.70
2018-03-15T01:21:15.314Z,81.88
2018-03-15T01:22:15.330Z,81.79
2018-03-15T01:23:15.357Z,81.94
2018-03-15T01:24:15.359Z,82.27
2018-03-15T01:25:15.379Z,82.17
2018-03-15T01:26:15.401Z,81.88
2018-03-15T01:27:15.418Z,82.36
2018-03-15T01:28:15.438Z,82.13
2018-03-15T01:29:15.453Z,82.60
2018-03-15T01:30:15.473Z,81.85
2018-03-15T01:31:15.488Z,82.42
2018-03-15T01:32:15.513Z,82.23
2018-03-15T01:33:15.528Z,82.32
2018-03-15T01:34:15.547Z,82.32
2018-03-15T01:35:15.561Z,82.79
2018-03-15T01:36:15.582Z,82.32
2018-03-15T01:37:15.602Z,82.42
2018-03-15T01:38:15.622Z,82.42
2018-03-15T01:39:15.631Z,82.70
2018-03-15T01:40:15.652Z,82.89
2018-03-15T01:41:15.667Z,82.89
2018-03-15T01:42:15.688Z,82.79
2018-03-15T01:43:15.704Z,83.17
2018-03-15T01:44:15.723Z,83.27
2018-03-15T01:45:15.742Z,83.17
2018-03-15T01:46:15.758Z,83.17
2018-03-15T01:47:15.777Z,82.70
2018-03-15T01:48:15.794Z,82.79
2018-03-15T01:49:15.822Z,83.27
2018-03-15T01:50:15.827Z,82.60
2018-03-15T01:51:15.852Z,83.17
2018-03-15T01:52:15.867Z,82.89
2018-03-15T01:53:15.882Z,83.08
2018-03-15T01:54:15.908Z,82.79
2018-03-15T01:55:15.922Z,82.60
2018-03-15T01:56:15.944Z,83.08
2018-03-15T01:57:15.962Z,83.17
2018-03-15T01:58:15.976Z,83.08
2018-03-15T01:59:15.988Z,83.46
2018-03-15T02:00:16.007Z,83.55
2018-03-15T02:01:16.031Z,83.55
2018-03-15T02:02:16.047Z,83.27
2018-03-15T02:03:16.063Z,82.98
2018-03-15T02:04:16.083Z,83.17
2018-03-15T02:05:16.108Z,83.08
2018-03-15T02:06:16.117Z,82.79
2018-03-15T02:07:16.135Z,83.17
2018-03-15T02:08:16.152Z,82.98
2018-03-15T02:09:16.171Z,83.17
2018-03-15T02:10:16.189Z,82.89
2018-03-15T02:11:16.207Z,83.08
2018-03-15T02:12:16.224Z,82.98
2018-03-15T02:13:16.242Z,83.27
2018-03-15T02:14:16.266Z,83.08
2018-03-15T02:15:16.283Z,83.74
2018-03-15T02:16:16.296Z,83.36
2018-03-15T02:17:16.314Z,83.55
2018-03-15T02:18:16.331Z,84.03
2018-03-15T02:19:16.347Z,83.46
2018-03-15T02:20:16.369Z,84.12
2018-03-15T02:21:16.389Z,83.55
2018-03-15T02:22:16.401Z,83.94
2018-03-15T02:23:16.421Z,84.12
2018-03-15T02:24:16.437Z,83.46
2018-03-15T02:25:16.457Z,84.22
2018-03-15T02:26:16.476Z,84.03
2018-03-15T02:27:16.496Z,83.55
2018-03-15T02:28:16.505Z,83.55
2018-03-15T02:29:16.529Z,83.27
2018-03-15T02:30:16.550Z,83.74
2018-03-15T02:31:16.564Z,83.27
2018-03-15T02:32:16.582Z,83.17
2018-03-15T02:33:16.595Z,83.08
2018-03-15T02:34:16.620Z,83.27
2018-03-15T02:35:16.635Z,83.17
2018-03-15T02:36:16.651Z,83.04
2018-03-15T02:37:16.667Z,83.08
2018-03-15T02:38:16.685Z,83.04
2018-03-15T02:39:16.700Z,82.79
2018-03-15T02:40:16.722Z,82.42
2018-03-15T02:41:16.736Z,82.79
2018-03-15T02:42:16.755Z,82.32
2018-03-15T02:43:16.770Z,82.42
2018-03-15T02:44:16.789Z,82.70
2018-03-15T02:45:16.810Z,82.60
2018-03-15T02:46:16.821Z,82.23
2018-03-15T02:47:16.839Z,81.75
2018-03-15T02:48:16.859Z,82.70
2018-03-15T02:49:16.880Z,82.23
2018-03-15T02:50:16.897Z,82.37
2018-03-15T02:51:16.910Z,82.37
2018-03-15T02:52:16.932Z,82.47
2018-03-15T02:53:16.950Z,82.66
2018-03-15T02:54:16.964Z,82.70
2018-03-15T02:55:16.984Z,82.32
2018-03-15T02:56:16.994Z,82.70
2018-03-15T02:57:17.026Z,82.79
2018-03-15T02:58:17.035Z,82.75
2018-03-15T02:59:17.054Z,82.85
2018-03-15T03:00:17.070Z,82.56
2018-03-15T03:01:17.091Z,82.94
2018-03-15T03:02:17.105Z,81.81
2018-03-15T03:03:17.119Z,82.28
2018-03-15T03:04:17.136Z,82.37
2018-03-15T03:05:17.159Z,82.56
2018-03-15T03:06:17.175Z,83.04
2018-03-15T03:07:17.193Z,82.56
2018-03-15T03:08:17.203Z,82.37
2018-03-15T03:09:17.289Z,82.18
2018-03-15T03:10:17.240Z,82.66
2018-03-15T03:11:17.256Z,82.28
2018-03-15T03:12:17.286Z,82.56
2018-03-15T03:13:17.291Z,82.18
2018-03-15T03:14:17.312Z,82.37
2018-03-15T03:15:17.332Z,81.71
2018-03-15T03:16:17.343Z,82.37
2018-03-15T03:17:17.366Z,82.37
2018-03-15T03:18:17.382Z,82.66
2018-03-15T03:19:17.394Z,82.56
2018-03-15T03:20:17.414Z,82.66
2018-03-15T03:21:17.429Z,83.23
2018-03-15T03:22:17.448Z,82.85
2018-03-15T03:23:17.466Z,82.85
2018-03-15T03:24:17.483Z,83.13
2018-03-15T03:25:17.505Z,83.51
2018-03-15T03:26:17.518Z,83.00
2018-03-15T03:27:17.533Z,82.94
2018-03-15T03:28:17.551Z,82.94
2018-03-15T03:29:17.568Z,82.56
2018-03-15T03:30:17.584Z,83.13
2018-03-15T03:31:17.604Z,82.66
2018-03-15T03:32:17.627Z,82.09
2018-03-15T03:33:17.634Z,82.18
2018-03-15T03:34:17.656Z,82.66
2018-03-15T03:35:17.673Z,82.47
2018-03-15T03:36:17.688Z,82.28
2018-03-15T03:37:17.711Z,82.47
2018-03-15T03:38:17.722Z,82.66
2018-03-15T03:39:17.737Z,82.66
2018-03-15T03:40:17.752Z,82.56
2018-03-15T03:41:17.774Z,82.47
2018-03-15T03:42:17.788Z,82.75
2018-03-15T03:43:17.810Z,82.75
2018-03-15T03:44:17.826Z,82.66
2018-03-15T03:45:17.842Z,82.09
2018-03-15T03:46:17.856Z,82.14
2018-03-15T03:47:17.872Z,82.14
2018-03-15T03:48:17.895Z,82.94
2018-03-15T03:49:17.907Z,82.71
2018-03-15T03:50:17.921Z,82.90
2018-03-15T03:51:17.946Z,82.37
2018-03-15T03:52:17.960Z,82.28
2018-03-15T03:53:17.976Z,82.47
2018-03-15T03:54:17.995Z,81.90
2018-03-15T03:55:18.006Z,81.52
2018-03-15T03:56:18.022Z,81.86
2018-03-15T03:57:18.049Z,81.81
2018-03-15T03:58:18.063Z,81.95
2018-03-15T03:59:18.076Z,82.24
2018-03-15T04:00:18.092Z,82.52
2018-03-15T04:01:18.112Z,82.62
2018-03-15T04:02:18.126Z,81.95
2018-03-15T04:03:18.149Z,81.67
2018-03-15T04:04:18.166Z,81.86
2018-03-15T04:05:18.175Z,81.86
2018-03-15T04:06:18.190Z,82.28
2018-03-15T04:07:18.210Z,82.71
2018-03-15T04:08:18.229Z,81.86
2018-03-15T04:09:18.246Z,81.67
2018-03-15T04:10:18.262Z,81.76
2018-03-15T04:11:18.285Z,81.57
2018-03-15T04:12:18.298Z,81.52
2018-03-15T04:13:18.321Z,81.14
2018-03-15T04:14:18.330Z,81.24
2018-03-15T04:15:18.345Z,80.67
2018-03-15T04:16:18.364Z,80.76
2018-03-15T04:17:18.380Z,81.33
2018-03-15T04:18:18.405Z,80.57
2018-03-15T04:19:18.419Z,80.86
2018-03-15T04:20:18.434Z,80.95
2018-03-15T04:21:18.450Z,80.76
2018-03-15T04:22:18.476Z,81.24
2018-03-15T04:23:18.482Z,80.76
2018-03-15T04:24:18.499Z,80.76
2018-03-15T04:25:18.518Z,80.95
2018-03-15T04:26:18.536Z,80.95
2018-03-15T04:27:18.550Z,80.19
2018-03-15T04:28:18.575Z,80.38
2018-03-15T04:29:18.588Z,80.19
2018-03-15T04:30:18.607Z,80.29
2018-03-15T04:31:18.620Z,80.19
2018-03-15T04:32:18.642Z,80.00
2018-03-15T04:33:18.654Z,79.91
2018-03-15T04:34:18.669Z,80.10
2018-03-15T04:35:18.690Z,80.10
2018-03-15T04:36:18.712Z,80.19
2018-03-15T04:37:18.723Z,80.67
2018-03-15T04:38:18.744Z,80.57
2018-03-15T04:39:18.760Z,80.67
2018-03-15T04:40:18.775Z,80.48
2018-03-15T04:41:18.804Z,80.67
2018-03-15T04:42:18.809Z,80.86
2018-03-15T04:43:18.832Z,80.76
2018-03-15T04:44:18.848Z,80.67
2018-03-15T04:45:18.864Z,80.19
2018-03-15T04:46:18.882Z,80.48
2018-03-15T04:47:18.898Z,79.72
2018-03-15T04:48:18.918Z,80.29
2018-03-15T04:49:18.929Z,80.00
2018-03-15T04:50:18.948Z,80.38
2018-03-15T04:51:18.963Z,80.10
2018-03-15T04:52:18.985Z,80.00
2018-03-15T04:53:19.002Z,79.34
2018-03-15T04:54:19.016Z,79.72
2018-03-15T04:55:19.036Z,80.76
2018-03-15T04:56:19.047Z,80.57
2018-03-15T04:57:19.068Z,80.95
2018-03-15T04:58:19.088Z,80.86
2018-03-15T04:59:19.108Z,80.57
2018-03-15T05:00:19.120Z,80.67
2018-03-15T05:01:19.138Z,80.67
2018-03-15T05:02:19.157Z,80.29
2018-03-15T05:03:19.168Z,80.10
2018-03-15T05:04:19.188Z,80.00
2018-03-15T05:05:19.211Z,79.44
2018-03-15T05:06:19.223Z,79.63
2018-03-15T05:07:19.243Z,80.10
2018-03-15T05:08:19.258Z,79.91
2018-03-15T05:09:19.277Z,79.72
2018-03-15T05:10:19.304Z,79.91
2018-03-15T05:11:19.306Z,79.72
2018-03-15T05:12:19.334Z,79.72
2018-03-15T05:13:19.346Z,79.91
2018-03-15T05:14:19.361Z,80.29
2018-03-15T05:15:19.385Z,80.67
2018-03-15T05:16:19.399Z,80.76
2018-03-15T05:17:19.420Z,80.57
2018-03-15T05:18:19.440Z,80.95
2018-03-15T05:19:19.452Z,80.38
2018-03-15T05:20:19.467Z,80.29
2018-03-15T05:21:19.491Z,80.10
2018-03-15T05:22:19.502Z,80.86
2018-03-15T05:23:19.521Z,80.29
2018-03-15T05:24:19.536Z,79.82
2018-03-15T05:25:19.560Z,79.82
2018-03-15T05:26:19.581Z,80.00
2018-03-15T05:27:19.591Z,80.95
2018-03-15T05:28:19.617Z,80.67
2018-03-15T05:29:19.626Z,80.29
2018-03-15T05:30:19.645Z,79.91
2018-03-15T05:31:19.657Z,80.10
2018-03-15T05:32:19.676Z,80.00
2018-03-15T05:33:19.694Z,80.10
2018-03-15T05:34:19.712Z,79.91
2018-03-15T05:35:19.733Z,80.29
2018-03-15T05:36:19.751Z,79.63
2018-03-15T05:37:19.766Z,79.82
2018-03-15T05:38:19.784Z,79.44
2018-03-15T05:39:19.796Z,79.53
2018-03-15T05:40:19.815Z,79.53
2018-03-15T05:41:19.835Z,79.63
2018-03-15T05:42:19.850Z,79.44
2018-03-15T05:43:19.868Z,79.57
2018-03-15T05:44:19.885Z,79.25
2018-03-15T05:45:19.908Z,78.81
2018-03-15T05:46:19.919Z,79.95
2018-03-15T05:47:19.941Z,79.66
2018-03-15T05:48:19.954Z,79.85
2018-03-15T05:49:19.975Z,79.57
2018-03-15T05:50:19.994Z,79.63
2018-03-15T05:51:20.008Z,79.82
2018-03-15T05:52:20.025Z,79.72
2018-03-15T05:53:20.049Z,79.82
2018-03-15T05:54:20.060Z,79.44
2018-03-15T05:55:20.075Z,79.44
2018-03-15T05:56:20.094Z,79.47
2018-03-15T05:57:20.120Z,79.82
2018-03-15T05:58:20.130Z,79.91
2018-03-15T05:59:20.147Z,80.10
2018-03-15T06:00:20.164Z,79.66
2018-03-15T06:01:20.184Z,78.87
2018-03-15T06:02:20.200Z,79.34
2018-03-15T06:03:20.216Z,80.14
2018-03-15T06:04:20.236Z,79.66
2018-03-15T06:05:20.254Z,79.25
2018-03-15T06:06:20.274Z,79.00
2018-03-15T06:07:20.293Z,78.91
2018-03-15T06:08:20.307Z,78.62
2018-03-15T06:09:20.324Z,78.72
2018-03-15T06:10:20.341Z,78.96
2018-03-15T06:11:20.362Z,79.72
2018-03-15T06:12:20.383Z,79.10
2018-03-15T06:13:20.396Z,79.28
2018-03-15T06:14:20.438Z,78.72
2018-03-15T06:15:20.427Z,78.72
2018-03-15T06:16:20.451Z,78.81
2018-03-15T06:17:20.462Z,78.81
2018-03-15T06:18:20.483Z,78.53
2018-03-15T06:19:20.505Z,78.72
2018-03-15T06:20:20.526Z,78.72
2018-03-15T06:21:20.540Z,78.62
2018-03-15T06:22:20.558Z,78.53
2018-03-15T06:23:20.606Z,78.53
2018-03-15T06:24:20.592Z,77.77
2018-03-15T06:25:20.608Z,78.15
2018-03-15T06:26:20.623Z,77.96
2018-03-15T06:27:20.643Z,77.77
2018-03-15T06:28:20.658Z,77.01
2018-03-15T06:29:20.672Z,76.63
2018-03-15T06:30:20.696Z,76.44
2018-03-15T06:31:20.716Z,76.15
2018-03-15T06:32:20.727Z,76.73
2018-03-15T06:33:20.746Z,76.25
2018-03-15T06:34:20.769Z,76.15
2018-03-15T06:35:20.786Z,76.25
2018-03-15T06:36:20.805Z,76.82
2018-03-15T06:37:20.822Z,76.92
2018-03-15T06:38:20.836Z,76.54
2018-03-15T06:39:20.855Z,76.73
2018-03-15T06:40:20.877Z,77.11
2018-03-15T06:41:20.887Z,77.11
2018-03-15T06:42:20.909Z,77.20
2018-03-15T06:43:20.927Z,77.48
2018-03-15T06:44:20.945Z,77.29
2018-03-15T06:45:20.970Z,77.58
2018-03-15T06:46:20.977Z,77.11
2018-03-15T06:47:20.993Z,77.67
2018-03-15T06:48:21.019Z,77.39
2018-03-15T06:49:21.032Z,77.39
2018-03-15T06:50:21.047Z,76.82
2018-03-15T06:51:21.108Z,77.11
2018-03-15T06:52:21.089Z,76.73
2018-03-15T06:53:21.102Z,76.54
2018-03-15T06:54:21.120Z,76.54
2018-03-15T06:55:21.137Z,76.63
2018-03-15T06:56:21.153Z,76.54
2018-03-15T06:57:21.173Z,76.44
2018-03-15T06:58:21.191Z,76.06
2018-03-15T06:59:21.212Z,76.06
2018-03-15T07:00:21.226Z,75.21
2018-03-15T07:01:21.250Z,75.40
2018-03-15T07:02:21.258Z,75.11
2018-03-15T07:03:21.272Z,74.26
2018-03-15T07:04:21.293Z,73.88
2018-03-15T07:05:21.561Z,73.97
2018-03-15T07:06:21.366Z,75.02
2018-03-15T07:07:21.351Z,74.73
2018-03-15T07:08:21.360Z,73.88
2018-03-15T07:09:21.382Z,74.26
2018-03-15T07:10:21.404Z,75.02
2018-03-15T07:11:21.414Z,74.45
2018-03-15T07:12:21.432Z,74.26
2018-03-15T07:13:21.450Z,73.69
2018-03-15T07:14:21.480Z,73.97
2018-03-15T07:15:21.489Z,74.26
2018-03-15T07:16:21.506Z,73.69
2018-03-15T07:17:21.521Z,73.88
2018-03-15T07:18:21.543Z,74.07
2018-03-15T07:19:21.560Z,73.88
2018-03-15T07:20:21.578Z,73.92
2018-03-15T07:21:21.845Z,74.11
2018-03-15T07:22:21.609Z,74.16
2018-03-15T07:23:21.627Z,74.64
2018-03-15T07:24:21.649Z,74.54
2018-03-15T07:25:21.666Z,74.26
2018-03-15T07:26:21.683Z,74.07
2018-03-15T07:27:21.703Z,73.92
2018-03-15T07:28:21.723Z,73.72
2018-03-15T07:29:21.736Z,73.07
2018-03-15T07:30:21.756Z,72.49
2018-03-15T07:31:21.775Z,72.97
2018-03-15T07:32:21.788Z,72.59
2018-03-15T07:33:21.808Z,72.68
2018-03-15T07:34:21.827Z,72.49
2018-03-15T07:35:21.851Z,72.49
2018-03-15T07:36:21.863Z,72.30
2018-03-15T07:37:21.879Z,72.88
2018-03-15T07:38:21.899Z,72.30
2018-03-15T07:39:21.943Z,72.30
2018-03-15T07:40:21.938Z,72.78
2018-03-15T07:41:21.954Z,72.49
2018-03-15T07:42:21.974Z,73.16
2018-03-15T07:43:21.993Z,73.25
2018-03-15T07:44:22.015Z,73.97
2018-03-15T07:45:22.023Z,73.97
2018-03-15T07:46:22.054Z,74.39
2018-03-15T07:47:22.065Z,74.49
2018-03-15T07:48:22.080Z,74.49
2018-03-15T07:49:22.099Z,73.82
2018-03-15T07:50:22.113Z,74.01
2018-03-15T07:51:22.134Z,74.20
2018-03-15T07:52:22.153Z,74.01
2018-03-15T07:53:22.168Z,73.72
2018-03-15T07:54:22.193Z,74.11
2018-03-15T07:55:22.206Z,73.72
2018-03-15T07:56:22.219Z,74.11
2018-03-15T07:57:22.240Z,73.92
2018-03-15T07:58:22.267Z,73.92
2018-03-15T07:59:22.281Z,73.16
2018-03-15T08:00:22.298Z,73.16
2018-03-15T08:01:22.311Z,72.97
2018-03-15T08:02:22.333Z,72.78
2018-03-15T08:03:22.349Z,72.68
2018-03-15T08:04:22.368Z,72.30
2018-03-15T08:05:22.392Z,71.86
2018-03-15T08:06:22.408Z,71.58
2018-03-15T08:07:22.422Z,71.58
2018-03-15T08:08:22.443Z,71.77
2018-03-15T08:09:22.461Z,71.01
2018-03-15T08:10:22.477Z,70.73
2018-03-15T08:11:22.498Z,71.48
2018-03-15T08:12:22.512Z,70.73
2018-03-15T08:13:22.539Z,71.01
2018-03-15T08:14:22.554Z,71.11
2018-03-15T08:15:22.571Z,70.15
2018-03-15T08:16:22.593Z,69.81
2018-03-15T08:17:22.611Z,70.10
2018-03-15T08:18:22.630Z,69.91
2018-03-15T08:19:22.647Z,69.53
2018-03-15T08:20:22.665Z,69.15
2018-03-15T08:21:22.686Z,68.96
2018-03-15T08:22:22.706Z,68.58
2018-03-15T08:23:22.726Z,69.24
2018-03-15T08:24:22.744Z,69.15
2018-03-15T08:25:22.762Z,68.86
2018-03-15T08:26:22.781Z,68.39
2018-03-15T08:27:22.795Z,67.91
2018-03-15T08:28:22.825Z,68.01
2018-03-15T08:29:22.837Z,67.44
2018-03-15T08:30:22.860Z,68.10
2018-03-15T08:31:22.876Z,68.01
2018-03-15T08:32:22.895Z,68.10
2018-03-15T08:33:22.964Z,68.39
2018-03-15T08:34:22.936Z,67.91
2018-03-15T08:35:22.956Z,68.01
2018-03-15T08:36:22.971Z,68.29
2018-03-15T08:37:22.994Z,67.82
2018-03-15T08:38:23.016Z,67.82
2018-03-15T08:39:23.051Z,67.82
2018-03-15T08:40:23.051Z,68.01
2018-03-15T08:41:23.069Z,68.01
2018-03-15T08:42:23.091Z,67.91
2018-03-15T08:43:23.111Z,68.01
2018-03-15T08:44:23.134Z,68.10
2018-03-15T08:45:23.154Z,67.25
2018-03-15T08:46:23.170Z,67.06
2018-03-15T08:47:23.188Z,66.90
2018-03-15T08:48:23.208Z,66.71
2018-03-15T08:49:23.239Z,66.30
2018-03-15T08:50:23.247Z,67.00
2018-03-15T08:51:23.268Z,66.52
2018-03-15T08:52:23.355Z,67.06
2018-03-15T08:53:23.306Z,66.33
2018-03-15T08:54:23.325Z,65.95
2018-03-15T08:55:23.403Z,65.28
2018-03-15T08:56:23.369Z,65.00
2018-03-15T08:57:23.442Z,65.86
2018-03-15T08:58:23.437Z,66.39
2018-03-15T08:59:23.428Z,66.52
2018-03-15T09:00:23.447Z,65.95
2018-03-15T09:01:23.460Z,66.20
2018-03-15T09:02:23.485Z,67.06
2018-03-15T09:03:23.515Z,67.25
2018-03-15T09:04:23.525Z,68.19
2018-03-15T09:05:23.668Z,67.91
2018-03-15T09:06:23.565Z,68.10
2018-03-15T09:07:23.585Z,68.01
2018-03-15T09:08:23.601Z,67.91
2018-03-15T09:09:23.657Z,68.19
2018-03-15T09:10:23.643Z,67.82
2018-03-15T09:11:23.662Z,67.82
2018-03-15T09:12:23.680Z,67.66
2018-03-15T09:13:23.702Z,67.15
2018-03-15T09:14:23.719Z,67.19
2018-03-15T09:15:23.736Z,67.44
2018-03-15T09:16:23.757Z,67.63
2018-03-15T09:17:23.778Z,67.57
2018-03-15T09:18:23.837Z,67.44
2018-03-15T09:19:23.816Z,67.09
2018-03-15T09:20:23.837Z,67.38
2018-03-15T09:21:23.859Z,67.38
2018-03-15T09:22:23.874Z,67.85
2018-03-15T09:23:23.898Z,67.72
2018-03-15T09:24:23.913Z,68.10
2018-03-15T09:25:23.933Z,68.48
2018-03-15T09:26:23.956Z,68.86
2018-03-15T09:27:23.974Z,69.24
2018-03-15T09:28:23.996Z,69.62
2018-03-15T09:29:24.013Z,69.43
2018-03-15T09:30:24.032Z,69.43
2018-03-15T09:31:24.055Z,69.15
2018-03-15T09:32:24.075Z,69.05
2018-03-15T09:33:24.098Z,68.77
2018-03-15T09:34:24.170Z,69.24
2018-03-15T09:35:24.134Z,69.15
2018-03-15T09:36:24.156Z,69.24
2018-03-15T09:37:24.176Z,68.19
2018-03-15T09:38:24.197Z,67.76
2018-03-15T09:39:24.209Z,67.94
2018-03-15T09:40:24.232Z,67.76
2018-03-15T09:41:24.257Z,67.57
2018-03-15T09:42:24.270Z,66.80
2018-03-15T09:43:24.296Z,66.71
2018-03-15T09:44:24.316Z,67.00
2018-03-15T09:45:24.331Z,66.65
2018-03-15T09:46:24.349Z,67.03
2018-03-15T09:47:24.373Z,66.36
2018-03-15T09:48:24.403Z,66.17
2018-03-15T09:49:24.414Z,66.08
2018-03-15T09:50:24.429Z,66.27
2018-03-15T09:51:24.452Z,65.99
2018-03-15T09:52:24.474Z,65.99
2018-03-15T09:53:24.490Z,64.75
2018-03-15T09:54:24.515Z,65.32
2018-03-15T09:55:24.532Z,65.60
2018-03-15T09:56:24.552Z,66.27
2018-03-15T09:57:24.577Z,66.61
2018-03-15T09:58:24.596Z,67.57
2018-03-15T09:59:24.612Z,68.23
2018-03-15T10:00:24.641Z,68.13
2018-03-15T10:01:24.671Z,68.33
2018-03-15T10:02:24.676Z,68.33
2018-03-15T10:03:24.697Z,68.61
2018-03-15T10:04:24.717Z,68.90
2018-03-15T10:05:24.737Z,68.80
2018-03-15T10:06:24.772Z,68.52
2018-03-15T10:07:24.775Z,67.85
2018-03-15T10:08:24.796Z,68.52
2018-03-15T10:09:24.824Z,69.66
2018-03-15T10:10:24.846Z,67.85
2018-03-15T10:11:24.862Z,68.04
2018-03-15T10:12:24.886Z,67.85
2018-03-15T10:13:24.900Z,67.76
2018-03-15T10:14:24.928Z,66.84
2018-03-15T10:15:24.944Z,66.71
2018-03-15T10:16:24.985Z,66.84
2018-03-15T10:17:24.988Z,66.71
2018-03-15T10:18:25.003Z,66.55
2018-03-15T10:19:25.021Z,66.33
2018-03-15T10:20:25.046Z,66.90
2018-03-15T10:21:25.065Z,66.55
2018-03-15T10:22:25.084Z,66.27
2018-03-15T10:23:25.104Z,66.08
2018-03-15T10:24:25.126Z,66.65
2018-03-15T10:25:26.396Z,66.27
2018-03-15T10:26:25.424Z,66.36
2018-03-15T10:27:25.189Z,66.90
2018-03-15T10:28:25.205Z,67.28
2018-03-15T10:29:25.229Z,68.13
2018-03-15T10:30:25.252Z,67.85
2018-03-15T10:31:25.269Z,68.33
2018-03-15T10:32:25.290Z,68.71
2018-03-15T10:33:25.315Z,68.42
2018-03-15T10:34:25.336Z,69.27
2018-03-15T10:35:25.359Z,68.90
2018-03-15T10:36:25.370Z,68.80
2018-03-15T10:37:25.389Z,68.13
2018-03-15T10:38:25.410Z,68.90
2018-03-15T10:39:25.431Z,69.18
2018-03-15T10:40:25.462Z,69.66
2018-03-15T10:41:25.487Z,69.27
2018-03-15T10:42:25.498Z,69.09
2018-03-15T10:43:25.516Z,69.27
2018-03-15T10:44:25.529Z,69.27
2018-03-15T10:45:25.553Z,68.80
2018-03-15T10:46:25.577Z,69.15
2018-03-15T10:47:25.593Z,68.99
2018-03-15T10:48:25.611Z,68.80
2018-03-15T10:49:25.668Z,69.15
2018-03-15T10:50:25.659Z,68.77
2018-03-15T10:51:25.674Z,69.05
2018-03-15T10:52:25.692Z,68.86
2018-03-15T10:53:25.722Z,69.43
2018-03-15T10:54:25.737Z,69.15
2018-03-15T10:55:25.754Z,69.34
2018-03-15T10:56:25.788Z,68.80
2018-03-15T10:57:25.793Z,68.48
2018-03-15T10:58:25.815Z,68.96
2018-03-15T10:59:25.830Z,68.80
2018-03-15T11:00:25.858Z,67.85
2018-03-15T11:01:25.873Z,68.19
2018-03-15T11:02:25.889Z,68.19
2018-03-15T11:03:25.912Z,68.23
2018-03-15T11:04:25.935Z,67.94
2018-03-15T11:05:25.957Z,68.13
2018-03-15T11:06:25.980Z,67.76
2018-03-15T11:07:26.012Z,67.66
2018-03-15T11:08:26.026Z,67.85
2018-03-15T11:09:26.036Z,67.28
2018-03-15T11:10:26.063Z,67.47
2018-03-15T11:11:26.075Z,67.72
2018-03-15T11:12:26.090Z,67.76
2018-03-15T11:13:26.107Z,67.82
2018-03-15T11:14:26.128Z,68.29
2018-03-15T11:15:26.151Z,68.58
2018-03-15T11:16:26.172Z,68.48
2018-03-15T11:17:26.190Z,68.19
2018-03-15T11:18:26.211Z,67.91
2018-03-15T11:19:26.227Z,67.82
2018-03-15T11:20:26.247Z,68.04
2018-03-15T11:21:26.268Z,67.94
2018-03-15T11:22:26.291Z,67.57
2018-03-15T11:23:26.312Z,67.47
2018-03-15T11:24:26.333Z,67.19
2018-03-15T11:25:26.347Z,66.90
2018-03-15T11:26:26.377Z,66.90
2018-03-15T11:27:26.637Z,66.24
2018-03-15T11:28:26.426Z,65.67
2018-03-15T11:29:26.427Z,66.24
2018-03-15T11:30:26.451Z,66.24
2018-03-15T11:31:26.463Z,66.24
2018-03-15T11:32:26.490Z,66.52
2018-03-15T11:33:26.511Z,66.05
2018-03-15T11:34:26.532Z,66.33
2018-03-15T11:35:26.546Z,66.52
2018-03-15T11:36:26.563Z,66.24
2018-03-15T11:37:26.609Z,66.24
2018-03-15T11:38:26.601Z,66.24
2018-03-15T11:39:26.630Z,66.24
2018-03-15T11:40:26.646Z,66.24
2018-03-15T11:41:26.664Z,65.47
2018-03-15T11:42:26.698Z,65.28
2018-03-15T11:43:26.700Z,65.38
2018-03-15T11:44:26.771Z,65.09
2018-03-15T11:45:26.750Z,65.09
2018-03-15T11:46:26.766Z,66.52
2018-03-15T11:47:26.794Z,66.52
2018-03-15T11:48:26.801Z,67.47
2018-03-15T11:49:26.826Z,68.13
2018-03-15T11:50:26.852Z,68.71
2018-03-15T11:51:26.865Z,68.86
2018-03-15T11:52:26.889Z,69.71
2018-03-15T11:53:26.906Z,69.81
2018-03-15T11:54:26.929Z,70.29
2018-03-15T11:55:26.945Z,70.48
2018-03-15T11:56:26.966Z,70.95
2018-03-15T11:57:26.990Z,70.38
2018-03-15T11:58:27.009Z,70.86
2018-03-15T11:59:27.024Z,70.95
2018-03-15T12:00:27.045Z,70.76
2018-03-15T12:01:27.059Z,71.14
2018-03-15T12:02:27.082Z,70.57
2018-03-15T12:03:27.100Z,70.57
2018-03-15T12:04:27.125Z,69.91
2018-03-15T12:05:27.144Z,69.71
2018-03-15T12:06:27.165Z,69.81
2018-03-15T12:07:27.180Z,69.94
2018-03-15T12:08:27.205Z,69.85
2018-03-15T12:09:27.218Z,69.85
2018-03-15T12:10:27.240Z,69.53
2018-03-15T12:11:27.259Z,70.10
2018-03-15T12:12:27.284Z,70.57
2018-03-15T12:13:27.295Z,70.38
2018-03-15T12:14:27.318Z,70.19
2018-03-15T12:15:27.339Z,70.86
2018-03-15T12:16:27.360Z,70.67
2018-03-15T12:17:27.378Z,70.29
2018-03-15T12:18:27.399Z,70.95
2018-03-15T12:19:27.414Z,71.14
2018-03-15T12:20:27.428Z,71.23
2018-03-15T12:21:27.453Z,71.14
2018-03-15T12:22:27.473Z,70.76
2018-03-15T12:23:27.493Z,71.23
2018-03-15T12:24:27.509Z,70.95
2018-03-15T12:25:27.529Z,70.76
2018-03-15T12:26:27.554Z,70.86
2018-03-15T12:27:27.573Z,71.43
2018-03-15T12:28:27.589Z,70.95
2018-03-15T12:29:27.614Z,71.23
2018-03-15T12:30:27.648Z,71.43
2018-03-15T12:31:27.645Z,71.33
2018-03-15T12:32:27.668Z,71.58
2018-03-15T12:33:27.689Z,71.58
2018-03-15T12:34:27.704Z,71.39
2018-03-15T12:35:27.728Z,71.58
2018-03-15T12:36:27.744Z,71.77
2018-03-15T12:37:27.774Z,71.77
2018-03-15T12:38:27.784Z,72.06
2018-03-15T12:39:27.803Z,72.06
2018-03-15T12:40:27.823Z,72.06
2018-03-15T12:41:27.847Z,71.77
2018-03-15T12:42:27.872Z,71.39
2018-03-15T12:43:27.877Z,71.39
2018-03-15T12:44:27.905Z,71.96
2018-03-15T12:45:27.926Z,71.62
2018-03-15T12:46:27.943Z,71.39
2018-03-15T12:47:27.954Z,71.20
2018-03-15T12:48:27.973Z,71.39
2018-03-15T12:49:27.997Z,71.11
2018-03-15T12:50:28.061Z,71.20
2018-03-15T12:51:28.035Z,71.11
2018-03-15T12:52:28.056Z,71.48